小松飛行場の過去48時間の天気

小松飛行場 (Kanazawa/Komatsu)

現在時刻: 9/23 09:27 JST (9/23 00:27 UTC) 以下の時間は現地時間です。

過去48時間のMETAR気象情報
時間 風向 風速(m/s) 視程 気温(℃) 湿度(%) 気圧(hPa) 天気現象
23 09:00 南西 4 10km以上 24 74 1013 弱いしゅう雨
23 08:00 2 10km以上 25 74 1012
23 07:00 南南東 3 10km以上 20 88 1012
23 06:00 南南西 4 10km以上 19 94 1012
23 05:00 南南東 3 10km以上 19 88 1011
23 04:00 2 10km以上 19 88 1011
23 03:00 2 10km以上 19 88 1011
23 02:00 2 10km以上 19 94 1011
23 01:00 2 10km以上 19 94 1011
23 00:00 不定 1 10km以上 19 94 1011
22 23:00 2 10km以上 19 88 1011
22 22:00 2 10km以上 20 94 1011
22 21:00 南南東 3 10km以上 21 94 1011
22 20:00 2 10km以上 21 94 1010
22 19:00 南南東 2 10km以上 22 94 1010
22 18:00 南東 4 10km以上 22 88 1010 弱いしゅう雨
22 17:00 3 10km以上 22 94 1010 弱いしゅう雨
22 16:00 南南東 4 6000m 22 94 1010 弱いしゅう雨
22 15:00 南西 4 8000m 23 94 1009 弱いしゅう雨
22 14:00 西 5 4000m 23 94 1009 弱いしゅう雨 もや
22 13:00 西 9 4000m 23 94 1009 しゅう雨 もや
22 12:00 南南西 4 10km以上 24 94 1008 弱いしゅう雨
22 11:00 西 7 10km以上 25 89 1009 弱いしゅう雨
22 10:00 南西 4 10km以上 26 84 1008 弱いしゅう雨
22 09:00 5 10km以上 27 70 1008 弱いしゅう雨
22 08:00 南南西 5 10km以上 29 62 1008
22 07:00 東南東 2 10km以上 24 78 1007
22 06:00 不定 1 10km以上 23 83 1008
22 05:00 2 10km以上 23 78 1007
22 04:00 北東 2 10km以上 22 83 1007
22 03:00 東南東 2 10km以上 22 83 1007
22 02:00 不定 1 10km以上 22 83 1007
22 01:00 不定 1 10km以上 23 78 1008
22 00:00 不定 1 10km以上 23 78 1008
21 23:00 東北東 2 10km以上 23 83 1008
21 22:00 不定 1 10km以上 23 83 1008
21 21:00 南東 2 10km以上 24 78 1009
21 20:00 南東 3 10km以上 25 74 1009
21 19:00 2 10km以上 25 69 1009
21 18:00 東北東 4 10km以上 26 65 1009
21 17:00 北北東 3 10km以上 28 55 1009
21 16:00 4 10km以上 28 51 1010
21 15:00 北北西 3 10km以上 28 55 1010
21 14:00 北西 4 10km以上 28 48 1010
21 13:00 北西 5 10km以上 27 58 1011
21 12:00 西北西 4 10km以上 28 55 1011
21 11:00 西北西 3 10km以上 27 58 1012
21 10:00 北西 2 10km以上 26 61 1013
RJNK 230000Z 23007KT 210V270 9999 -SHRA FEW020 SCT030 FEW030CB BKN050 24/19 Q1013 RETS
RJNK 222300Z 17004KT 9999 TS FEW030CB SCT050 BKN120 25/20 Q1012
RJNK 222200Z 15005KT 9999 FEW030CB SCT220 20/18 Q1012
RJNK 222100Z 20007KT 9999 FEW030 19/18 Q1012
RJNK 222000Z 16005KT 9999 FEW030 19/17 Q1011
RJNK 221900Z 18004KT 9999 FEW030 SCT050 19/17 Q1011
RJNK 221800Z 18004KT 9999 FEW030 SCT050 19/17 Q1011
RJNK 221700Z 19003KT 150V230 9999 FEW030 BKN050 19/18 Q1011
RJNK 221600Z 19003KT 150V220 9999 FEW030 BKN050 19/18 Q1011
RJNK 221500Z VRB02KT 9999 FEW070 19/18 Q1011
RJNK 221400Z 18004KT 9999 FEW050 19/17 Q1011
RJNK 221300Z 17003KT 150V210 9999 FEW050 SCT150 20/19 Q1011
RJNK 221200Z 16005KT 9999 FEW050 SCT150 21/20 Q1011
RJNK 221100Z 17004KT 9999 FEW050 SCT100 BKN150 21/20 Q1010
RJNK 221000Z 15004KT 9999 FEW030 BKN100 BKN150 22/21 Q1010
RJNK 220900Z 14008KT 9999 -SHRA FEW015 SCT030 BKN100 22/20 Q1010
RJNK 220800Z 17005KT 140V200 9999 -SHRA FEW003 SCT030 BKN050 22/21 Q1010
RJNK 220700Z 16007KT 130V190 6000 -SHRA FEW005 BKN008 BKN015 22/21 Q1010
RJNK 220600Z 23007KT 8000 -SHRA FEW005 SCT008 BKN015 23/22 Q1009
RJNK 220500Z 27009KT 4000 -SHRA BR FEW005 BKN008 BKN015 23/22 Q1009
RJNK 220400Z 28018KT 4000 R24/1400VP1800U SHRA BR SCT008 BKN015 OVC030 23/22 Q1009
RJNK 220300Z 20008KT 9999 -SHRA SCT015 BKN030 OVC050 24/23 Q1008
RJNK 220200Z 26014KT 9999 -SHRA FEW030 BKN050 BKN060 25/23 Q1009
RJNK 220100Z 22007KT 9999 -SHRA SCT030 BKN050 BKN060 26/23 Q1008
RJNK 220000Z 19009KT 160V220 9999 -SHRA SCT030 BKN050 BKN060 27/21 Q1008
RJNK 212300Z 20009KT 9999 FEW030 BKN060 29/21 Q1008
RJNK 212200Z 12003KT 9999 FEW030 BKN060 BKN080 24/20 Q1007
RJNK 212100Z VRB01KT 9999 FEW030 BKN060 BKN080 23/20 Q1008
RJNK 212000Z 01004KT 330V050 9999 FEW050 BKN080 23/19 Q1007
RJNK 211900Z 05003KT 9999 SCT050 BKN080 22/19 Q1007
RJNK 211800Z 11003KT 9999 FEW050 SCT080 22/19 Q1007
RJNK 211700Z VRB02KT 9999 FEW050 SCT080 22/19 Q1007
RJNK 211600Z VRB01KT 9999 SCT050 BKN080 23/19 Q1008
RJNK 211500Z VRB02KT 9999 FEW050 SCT080 23/19 Q1008
RJNK 211400Z 06004KT 9999 FEW080 23/20 Q1008
RJNK 211300Z VRB01KT 9999 FEW100 23/20 Q1008
RJNK 211200Z 14003KT 110V170 9999 FEW050 24/20 Q1009
RJNK 211100Z 13005KT 9999 FEW050 25/20 Q1009
RJNK 211000Z 01003KT 340V040 9999 FEW050 25/19 Q1009
RJNK 210900Z 06007KT 9999 FEW050 26/19 Q1009
RJNK 210800Z 03006KT 9999 FEW060 28/18 Q1009
RJNK 210700Z 35008KT 9999 FEW060 28/17 Q1010
RJNK 210600Z 33005KT 290V010 9999 FEW060 28/18 Q1010
RJNK 210500Z 31007KT 9999 FEW030 28/16 Q1010
RJNK 210400Z 31009KT 9999 FEW060 27/18 Q1011
RJNK 210300Z 30008KT 280V340 9999 FEW090 28/18 Q1011
RJNK 210200Z 30005KT 260V340 9999 FEW090 27/18 Q1012
RJNK 210100Z 32004KT 260V360 9999 FEW090 26/18 Q1013